Time;durP1;ratioP1;P1;durP2;ratioP2;P2;SDS_P1;SDS_P2;PMS_P1;PMS_P2;Temp;Humidity;BMP_temperature;BMP_pressure;BME280_temperature;BME280_humidity;BME280_pressure;Samples;Min_cycle;Max_cycle;Signal;HPM_P1;HPM_P2
2023/12/16 00:00:37;;;;;;;10.38;5.25;;;;;;;;;;5042337;28;20021;-89
2023/12/16 00:03:04;;;;;;;11.55;5.45;;;;;;;;;;5038612;28;20395;-87
2023/12/16 00:05:29;;;;;;;9.60;5.63;;;;;;;;;;5044080;28;20033;-87
2023/12/16 00:07:54;;;;;;;13.00;6.45;;;;;;;;;;5053817;28;20429;-88
2023/12/16 00:10:21;;;;;;;8.50;4.30;;;;;;;;;;5060007;28;20036;-89
2023/12/16 00:12:46;;;;;;;11.35;5.05;;;;;;;;;;5060675;28;20037;-86
2023/12/16 00:15:12;;;;;;;7.75;4.55;;;;;;;;;;5057727;28;20028;-88
2023/12/16 00:17:37;;;;;;;10.75;5.40;;;;;;;;;;5050796;28;20021;-90
2023/12/16 00:20:03;;;;;;;11.27;6.00;;;;;;;;;;5055481;28;20483;-89
2023/12/16 00:22:29;;;;;;;11.02;5.63;;;;;;;;;;5052701;28;20025;-89
2023/12/16 00:24:54;;;;;;;9.93;5.35;;;;;;;;;;5049756;28;20021;-88
2023/12/16 00:27:20;;;;;;;10.15;4.50;;;;;;;;;;5051008;28;20258;-86
2023/12/16 00:29:46;;;;;;;7.70;4.75;;;;;;;;;;5045830;28;20021;-88
2023/12/16 00:32:11;;;;;;;7.38;4.13;;;;;;;;;;5048501;28;20032;-89
2023/12/16 00:34:36;;;;;;;6.18;3.60;;;;;;;;;;5041432;28;20018;-87
2023/12/16 00:37:05;;;;;;;11.48;6.20;;;;;;;;;;5040614;28;20017;-88
2023/12/16 00:39:31;;;;;;;8.15;4.50;;;;;;;;;;5036584;28;20036;-86
2023/12/16 00:41:56;;;;;;;5.30;3.50;;;;;;;;;;5052482;28;20017;-85
2023/12/16 00:44:21;;;;;;;7.47;4.07;;;;;;;;;;5062610;28;20020;-86
2023/12/16 00:46:47;;;;;;;9.85;5.15;;;;;;;;;;5066741;28;20025;-87
2023/12/16 00:49:12;;;;;;;8.43;4.07;;;;;;;;;;5044789;28;20041;-86
2023/12/16 00:51:37;;;;;;;5.68;3.00;;;;;;;;;;5033487;28;20029;-85
2023/12/16 00:54:03;;;;;;;4.72;3.20;;;;;;;;;;5035214;28;20064;-86
2023/12/16 00:56:28;;;;;;;6.07;3.00;;;;;;;;;;5039291;28;20025;-86
2023/12/16 00:58:54;;;;;;;8.57;3.63;;;;;;;;;;5037738;28;20025;-89
2023/12/16 01:01:19;;;;;;;5.53;3.58;;;;;;;;;;5043505;28;20118;-88
2023/12/16 01:03:45;;;;;;;6.80;3.85;;;;;;;;;;5052254;28;20033;-87
2023/12/16 01:06:10;;;;;;;5.43;3.83;;;;;;;;;;5053186;28;20029;-87
2023/12/16 01:08:36;;;;;;;5.35;3.50;;;;;;;;;;5048407;28;20053;-86
2023/12/16 01:11:01;;;;;;;4.57;2.95;;;;;;;;;;5035608;28;20064;-86
2023/12/16 01:13:27;;;;;;;4.32;3.30;;;;;;;;;;5040386;28;20092;-86
2023/12/16 01:15:52;;;;;;;3.45;2.95;;;;;;;;;;5031206;28;20044;-86
2023/12/16 01:18:17;;;;;;;4.43;2.80;;;;;;;;;;5032042;28;20091;-87
2023/12/16 01:20:43;;;;;;;5.97;3.67;;;;;;;;;;5032145;28;20021;-87
2023/12/16 01:23:08;;;;;;;4.30;2.83;;;;;;;;;;5033979;28;20018;-85
2023/12/16 01:25:33;;;;;;;8.90;3.75;;;;;;;;;;5033368;28;20037;-85
2023/12/16 01:27:58;;;;;;;8.02;4.78;;;;;;;;;;5034829;28;20029;-87
2023/12/16 01:30:24;;;;;;;6.03;3.53;;;;;;;;;;5035436;28;20070;-88
2023/12/16 01:32:51;;;;;;;4.05;3.17;;;;;;;;;;5034349;28;20020;-85
2023/12/16 01:35:16;;;;;;;4.05;3.13;;;;;;;;;;5017911;28;20036;-84
2023/12/16 01:37:42;;;;;;;5.35;3.40;;;;;;;;;;5049418;28;20028;-86
2023/12/16 01:40:07;;;;;;;4.70;2.92;;;;;;;;;;5062108;28;20031;-85
2023/12/16 01:42:33;;;;;;;9.15;5.00;;;;;;;;;;5058251;28;20044;-85
2023/12/16 01:44:58;;;;;;;6.28;4.35;;;;;;;;;;5044533;28;20024;-86
2023/12/16 01:47:24;;;;;;;6.80;3.65;;;;;;;;;;5038476;28;20029;-86
2023/12/16 01:49:50;;;;;;;6.03;3.72;;;;;;;;;;5033314;28;20121;-86
2023/12/16 01:52:16;;;;;;;8.35;4.60;;;;;;;;;;5032576;28;20021;-85
2023/12/16 01:54:42;;;;;;;6.53;4.22;;;;;;;;;;5033670;28;20401;-86
2023/12/16 01:57:08;;;;;;;14.02;4.43;;;;;;;;;;5040776;28;20020;-86
2023/12/16 01:59:33;;;;;;;10.25;5.07;;;;;;;;;;5038214;28;20037;-86
2023/12/16 02:01:59;;;;;;;10.27;4.95;;;;;;;;;;5038191;28;20029;-87
2023/12/16 02:04:25;;;;;;;8.75;4.82;;;;;;;;;;5040211;28;20055;-86
2023/12/16 02:06:50;;;;;;;4.30;3.42;;;;;;;;;;5030369;28;20029;-85
2023/12/16 02:09:18;;;;;;;6.68;4.13;;;;;;;;;;5035270;28;20036;-86
2023/12/16 02:11:43;;;;;;;4.55;3.20;;;;;;;;;;5032806;28;20029;-87
2023/12/16 02:14:09;;;;;;;4.65;3.42;;;;;;;;;;5033801;28;20036;-85
2023/12/16 02:16:35;;;;;;;8.38;4.35;;;;;;;;;;5035374;28;20517;-86
2023/12/16 02:19:00;;;;;;;5.82;3.42;;;;;;;;;;5034809;28;20021;-84
2023/12/16 02:21:26;;;;;;;4.47;3.42;;;;;;;;;;5031958;28;20036;-85
2023/12/16 02:23:51;;;;;;;4.63;3.28;;;;;;;;;;5033590;28;20037;-85
2023/12/16 02:26:16;;;;;;;6.78;3.78;;;;;;;;;;5034205;28;20033;-87
2023/12/16 02:28:42;;;;;;;8.93;4.93;;;;;;;;;;5032770;28;20032;-86
2023/12/16 02:31:07;;;;;;;4.90;3.30;;;;;;;;;;5034710;28;20041;-89
2023/12/16 02:33:32;;;;;;;4.65;3.33;;;;;;;;;;5036672;28;20041;-88
2023/12/16 02:35:59;;;;;;;7.18;4.22;;;;;;;;;;5038704;28;20017;-86
2023/12/16 02:38:25;;;;;;;5.45;3.67;;;;;;;;;;5039040;28;20033;-87
2023/12/16 02:40:50;;;;;;;7.28;3.85;;;;;;;;;;5041392;28;20029;-86
2023/12/16 02:43:16;;;;;;;11.75;4.03;;;;;;;;;;5051254;28;20036;-86
2023/12/16 02:45:41;;;;;;;7.78;3.38;;;;;;;;;;5059750;28;20037;-88
2023/12/16 02:48:06;;;;;;;5.25;3.15;;;;;;;;;;5057139;28;20115;-87
2023/12/16 02:50:32;;;;;;;4.85;3.20;;;;;;;;;;5058851;28;20502;-86
2023/12/16 02:52:57;;;;;;;3.30;2.92;;;;;;;;;;5057098;28;20052;-88
2023/12/16 02:55:22;;;;;;;3.95;2.80;;;;;;;;;;5055236;28;20112;-87
2023/12/16 02:57:48;;;;;;;3.70;3.03;;;;;;;;;;5045714;28;20099;-87
2023/12/16 03:00:14;;;;;;;4.30;2.97;;;;;;;;;;5039664;28;20055;-87
2023/12/16 03:02:39;;;;;;;6.88;3.58;;;;;;;;;;5037037;28;20025;-86
2023/12/16 03:05:05;;;;;;;7.18;2.78;;;;;;;;;;5039231;28;20048;-88
2023/12/16 03:07:30;;;;;;;3.90;2.72;;;;;;;;;;5039334;28;20464;-87
2023/12/16 03:09:56;;;;;;;5.35;3.30;;;;;;;;;;5041147;28;20112;-88
2023/12/16 03:12:21;;;;;;;4.95;3.30;;;;;;;;;;5040286;28;20084;-88
2023/12/16 03:14:46;;;;;;;16.35;2.95;;;;;;;;;;5044973;28;20021;-86
2023/12/16 03:17:12;;;;;;;4.07;3.15;;;;;;;;;;5041672;28;20112;-86
2023/12/16 03:19:37;;;;;;;5.18;2.90;;;;;;;;;;5035577;28;20044;-86
2023/12/16 03:22:03;;;;;;;5.72;3.17;;;;;;;;;;5037985;28;20018;-87
2023/12/16 03:24:29;;;;;;;6.85;3.47;;;;;;;;;;5038820;28;20022;-89
2023/12/16 03:26:54;;;;;;;9.35;3.67;;;;;;;;;;5039384;28;20053;-89
2023/12/16 03:29:19;;;;;;;3.70;2.97;;;;;;;;;;5038837;28;20025;-89
2023/12/16 03:31:45;;;;;;;4.90;3.42;;;;;;;;;;5038817;28;20060;-88
2023/12/16 03:34:10;;;;;;;7.53;3.28;;;;;;;;;;5039034;28;20021;-88
2023/12/16 03:36:35;;;;;;;7.20;3.97;;;;;;;;;;5041709;28;20056;-87
2023/12/16 03:39:01;;;;;;;4.53;3.35;;;;;;;;;;5047536;28;20082;-86
2023/12/16 03:41:26;;;;;;;4.95;3.13;;;;;;;;;;5036058;28;20030;-87
2023/12/16 03:43:51;;;;;;;6.28;3.28;;;;;;;;;;5036713;28;20452;-88
2023/12/16 03:46:21;;;;;;;4.13;2.55;;;;;;;;;;5044968;28;20082;-86
2023/12/16 03:48:46;;;;;;;6.05;3.17;;;;;;;;;;5036518;28;20687;-88
2023/12/16 03:51:12;;;;;;;4.35;3.17;;;;;;;;;;5044806;28;20032;-87
2023/12/16 03:53:37;;;;;;;4.35;3.17;;;;;;;;;;5049054;28;20017;-87
2023/12/16 03:56:03;;;;;;;4.63;2.90;;;;;;;;;;5055304;28;20033;-87
2023/12/16 03:58:29;;;;;;;3.97;2.97;;;;;;;;;;5051889;28;20021;-87
2023/12/16 04:00:54;;;;;;;3.15;2.83;;;;;;;;;;5037761;28;20025;-86
2023/12/16 04:03:19;;;;;;;6.72;3.75;;;;;;;;;;5046451;28;20025;-86
2023/12/16 04:05:45;;;;;;;5.07;3.55;;;;;;;;;;5040183;28;20021;-87
2023/12/16 04:08:10;;;;;;;6.70;3.20;;;;;;;;;;5034475;28;20097;-88
2023/12/16 04:10:36;;;;;;;3.30;2.92;;;;;;;;;;5035943;28;20475;-86
2023/12/16 04:13:01;;;;;;;3.97;3.03;;;;;;;;;;5036197;28;20033;-86
2023/12/16 04:15:27;;;;;;;4.72;3.17;;;;;;;;;;5035470;28;20022;-86
2023/12/16 04:17:53;;;;;;;6.93;2.88;;;;;;;;;;5035532;28;20026;-86
2023/12/16 04:20:18;;;;;;;8.07;3.22;;;;;;;;;;5045295;28;20005;-86
2023/12/16 04:22:43;;;;;;;6.25;3.10;;;;;;;;;;5048604;28;20017;-88
2023/12/16 04:25:11;;;;;;;4.72;3.05;;;;;;;;;;5040733;28;20033;-88
2023/12/16 04:27:37;;;;;;;5.53;3.35;;;;;;;;;;5039689;28;20065;-89
2023/12/16 04:30:04;;;;;;;4.55;3.33;;;;;;;;;;5039404;28;20059;-88
2023/12/16 04:32:29;;;;;;;6.57;3.67;;;;;;;;;;5036407;28;20014;-87
2023/12/16 04:34:55;;;;;;;5.28;3.10;;;;;;;;;;5041515;28;20017;-88
2023/12/16 04:37:20;;;;;;;10.63;3.20;;;;;;;;;;5048433;28;20055;-86
2023/12/16 04:39:45;;;;;;;2.95;2.60;;;;;;;;;;5056495;28;20021;-88
2023/12/16 04:42:11;;;;;;;3.55;2.42;;;;;;;;;;5054757;28;20029;-88
2023/12/16 04:44:37;;;;;;;5.18;3.85;;;;;;;;;;5055455;28;20043;-86
2023/12/16 04:47:03;;;;;;;5.25;3.47;;;;;;;;;;5054427;28;20066;-86
2023/12/16 04:49:28;;;;;;;6.40;3.65;;;;;;;;;;5055686;28;20029;-88
2023/12/16 04:51:54;;;;;;;3.78;2.85;;;;;;;;;;5055221;28;20023;-87
2023/12/16 04:54:19;;;;;;;5.60;3.55;;;;;;;;;;5057151;28;20071;-89
2023/12/16 04:56:45;;;;;;;4.18;3.22;;;;;;;;;;5050572;28;20380;-87
2023/12/16 04:59:10;;;;;;;4.40;2.70;;;;;;;;;;5037531;28;20051;-88
2023/12/16 05:01:36;;;;;;;4.18;3.13;;;;;;;;;;5056064;28;20036;-87
2023/12/16 05:04:01;;;;;;;4.95;3.22;;;;;;;;;;5046047;28;20472;-88
2023/12/16 05:06:26;;;;;;;5.97;3.50;;;;;;;;;;5055505;28;20537;-88
2023/12/16 05:08:52;;;;;;;4.03;2.72;;;;;;;;;;5049552;28;20021;-87
2023/12/16 05:11:17;;;;;;;5.75;2.92;;;;;;;;;;5044653;28;20132;-87
2023/12/16 05:13:43;;;;;;;5.57;3.17;;;;;;;;;;5035902;28;20040;-86
2023/12/16 05:16:08;;;;;;;3.90;2.60;;;;;;;;;;5036233;28;20029;-88
2023/12/16 05:18:34;;;;;;;15.15;3.33;;;;;;;;;;5040797;28;20028;-88
2023/12/16 05:20:59;;;;;;;2.85;2.60;;;;;;;;;;5046515;28;20055;-88
2023/12/16 05:23:25;;;;;;;5.95;3.58;;;;;;;;;;5037398;28;20489;-87
2023/12/16 05:25:50;;;;;;;6.72;3.50;;;;;;;;;;5041048;28;20021;-87
2023/12/16 05:28:15;;;;;;;5.03;3.15;;;;;;;;;;5042174;28;20618;-87
2023/12/16 05:30:41;;;;;;;3.60;2.50;;;;;;;;;;5037514;28;20021;-87
2023/12/16 05:33:06;;;;;;;2.45;2.00;;;;;;;;;;5046503;28;20010;-87
2023/12/16 05:35:32;;;;;;;3.38;2.50;;;;;;;;;;5056423;28;20083;-87
2023/12/16 05:37:57;;;;;;;4.15;2.80;;;;;;;;;;5044562;28;20488;-87
2023/12/16 05:40:22;;;;;;;3.95;2.70;;;;;;;;;;5050041;28;20089;-87
2023/12/16 05:42:48;;;;;;;5.55;2.92;;;;;;;;;;5059408;28;20020;-89
2023/12/16 05:45:13;;;;;;;5.10;3.25;;;;;;;;;;5045878;28;20025;-88
2023/12/16 05:47:38;;;;;;;5.95;3.15;;;;;;;;;;5047022;28;20141;-88
2023/12/16 05:50:05;;;;;;;4.15;2.72;;;;;;;;;;5036227;28;20071;-87
2023/12/16 05:52:31;;;;;;;4.78;2.70;;;;;;;;;;5045070;28;20021;-89
2023/12/16 05:54:57;;;;;;;4.47;2.70;;;;;;;;;;5042364;28;20033;-88
2023/12/16 05:57:22;;;;;;;5.63;3.35;;;;;;;;;;5057298;28;20035;-88
2023/12/16 05:59:47;;;;;;;4.90;3.15;;;;;;;;;;5056051;28;20044;-88
2023/12/16 06:02:13;;;;;;;4.07;2.85;;;;;;;;;;5053393;28;20446;-88
2023/12/16 06:04:38;;;;;;;4.47;2.38;;;;;;;;;;5042012;28;20033;-88
2023/12/16 06:07:04;;;;;;;3.22;2.72;;;;;;;;;;5035562;28;20448;-89
2023/12/16 06:09:29;;;;;;;3.17;2.28;;;;;;;;;;5037254;28;20025;-89
2023/12/16 06:11:57;;;;;;;3.38;2.45;;;;;;;;;;5037029;28;20108;-89
2023/12/16 06:14:23;;;;;;;3.80;2.47;;;;;;;;;;5038086;28;20021;-88
2023/12/16 06:16:48;;;;;;;2.92;2.22;;;;;;;;;;5036261;28;20025;-88
2023/12/16 06:19:13;;;;;;;6.97;3.03;;;;;;;;;;5036310;28;20037;-89
2023/12/16 06:21:39;;;;;;;3.03;2.30;;;;;;;;;;5041140;28;20017;-88
2023/12/16 06:24:05;;;;;;;2.92;2.40;;;;;;;;;;5041907;28;20379;-88
2023/12/16 06:26:31;;;;;;;4.15;2.95;;;;;;;;;;5033644;28;20026;-87
2023/12/16 06:28:56;;;;;;;7.43;3.05;;;;;;;;;;5038703;28;20029;-88
2023/12/16 06:31:22;;;;;;;2.92;2.28;;;;;;;;;;5047755;28;20331;-88
2023/12/16 06:33:47;;;;;;;5.18;3.20;;;;;;;;;;5041527;28;20040;-88
2023/12/16 06:36:12;;;;;;;4.43;2.95;;;;;;;;;;5045662;28;20044;-89
2023/12/16 06:38:38;;;;;;;3.50;2.60;;;;;;;;;;5036712;28;20123;-88
2023/12/16 06:41:05;;;;;;;4.97;3.10;;;;;;;;;;5037327;28;20090;-88
2023/12/16 06:43:30;;;;;;;3.13;2.35;;;;;;;;;;5054045;28;20040;-88
2023/12/16 06:45:55;;;;;;;3.03;2.38;;;;;;;;;;5044498;28;20089;-85
2023/12/16 06:48:22;;;;;;;4.35;2.78;;;;;;;;;;5039118;28;20041;-89
2023/12/16 06:50:49;;;;;;;4.47;2.80;;;;;;;;;;5034623;28;20048;-89
2023/12/16 06:53:15;;;;;;;2.55;2.05;;;;;;;;;;5035353;28;20021;-88
2023/12/16 06:55:40;;;;;;;4.32;2.67;;;;;;;;;;5036740;28;20056;-90
2023/12/16 06:58:05;;;;;;;3.15;2.47;;;;;;;;;;5048013;28;20478;-87
2023/12/16 07:00:31;;;;;;;3.75;2.28;;;;;;;;;;5040698;28;20036;-84
2023/12/16 07:02:56;;;;;;;2.85;2.35;;;;;;;;;;5050644;28;20029;-89
2023/12/16 07:05:22;;;;;;;3.70;2.70;;;;;;;;;;5035721;28;20025;-87
2023/12/16 07:07:47;;;;;;;2.55;1.88;;;;;;;;;;5034633;28;20025;-86
2023/12/16 07:10:13;;;;;;;3.72;2.53;;;;;;;;;;5034256;28;20025;-86
2023/12/16 07:12:38;;;;;;;5.57;2.58;;;;;;;;;;5037229;28;20621;-89
2023/12/16 07:15:04;;;;;;;3.33;2.20;;;;;;;;;;5055133;28;20036;-89
2023/12/16 07:17:30;;;;;;;3.47;2.70;;;;;;;;;;5059160;28;20060;-88
2023/12/16 07:19:55;;;;;;;4.30;2.78;;;;;;;;;;5059141;28;20036;-89
2023/12/16 07:22:21;;;;;;;8.18;2.40;;;;;;;;;;5052154;28;20109;-90
2023/12/16 07:24:47;;;;;;;4.95;2.65;;;;;;;;;;5038736;28;20437;-89
2023/12/16 07:27:12;;;;;;;4.82;2.70;;;;;;;;;;5038619;28;20495;-86
2023/12/16 07:29:37;;;;;;;3.22;2.17;;;;;;;;;;5042518;28;20021;-88
2023/12/16 07:32:04;;;;;;;2.28;2.05;;;;;;;;;;5046129;28;20053;-87
2023/12/16 07:34:29;;;;;;;3.13;2.53;;;;;;;;;;5047921;28;20025;-89
2023/12/16 07:36:54;;;;;;;3.38;2.55;;;;;;;;;;5044765;28;20079;-88
2023/12/16 07:39:20;;;;;;;4.78;2.55;;;;;;;;;;5037427;28;20083;-89
2023/12/16 07:41:46;;;;;;;4.38;2.47;;;;;;;;;;5038599;28;20031;-87
2023/12/16 07:44:11;;;;;;;5.25;2.20;;;;;;;;;;5037267;28;20048;-88
2023/12/16 07:46:39;;;;;;;4.55;2.70;;;;;;;;;;5047769;28;20028;-88
2023/12/16 07:49:04;;;;;;;3.97;2.88;;;;;;;;;;5043273;28;20025;-87
2023/12/16 07:51:30;;;;;;;4.43;2.47;;;;;;;;;;5048448;28;20115;-87
2023/12/16 07:53:55;;;;;;;4.90;3.13;;;;;;;;;;5048536;28;20009;-86
2023/12/16 07:56:22;;;;;;;3.70;2.20;;;;;;;;;;5064590;28;20025;-90
2023/12/16 07:58:51;;;;;;;4.03;2.30;;;;;;;;;;5061284;28;20021;-86
2023/12/16 08:01:18;;;;;;;2.42;2.22;;;;;;;;;;5061389;28;20463;-88
2023/12/16 08:03:44;;;;;;;4.25;2.67;;;;;;;;;;5051608;28;20056;-88
2023/12/16 08:06:09;;;;;;;3.33;2.50;;;;;;;;;;5046874;28;20013;-88
2023/12/16 08:08:39;;;;;;;3.90;2.63;;;;;;;;;;5039860;28;20025;-88
2023/12/16 08:11:05;;;;;;;3.80;2.65;;;;;;;;;;5044275;28;20241;-88
2023/12/16 08:13:31;;;;;;;7.07;2.80;;;;;;;;;;5048428;28;20055;-89
2023/12/16 08:15:56;;;;;;;3.65;2.38;;;;;;;;;;5037505;28;20085;-88
2023/12/16 08:18:22;;;;;;;2.47;2.00;;;;;;;;;;5038888;28;20025;-88
2023/12/16 08:20:47;;;;;;;5.55;3.20;;;;;;;;;;5043153;28;20021;-88
2023/12/16 08:23:13;;;;;;;3.70;2.67;;;;;;;;;;5054269;28;20026;-88
2023/12/16 08:25:39;;;;;;;4.80;3.08;;;;;;;;;;5051961;28;20073;-88
2023/12/16 08:28:04;;;;;;;5.05;3.42;;;;;;;;;;5047110;28;20079;-89
2023/12/16 08:30:30;;;;;;;7.85;2.78;;;;;;;;;;5040551;28;20468;-88
2023/12/16 08:32:55;;;;;;;7.47;2.92;;;;;;;;;;5035015;28;20025;-87
2023/12/16 08:35:21;;;;;;;4.22;2.78;;;;;;;;;;5036015;28;20025;-88
2023/12/16 08:37:46;;;;;;;5.97;2.50;;;;;;;;;;5036263;28;20376;-88
2023/12/16 08:40:11;;;;;;;5.38;2.70;;;;;;;;;;5035493;28;20064;-88
2023/12/16 08:42:38;;;;;;;3.55;2.55;;;;;;;;;;5034825;28;20045;-87
2023/12/16 08:45:03;;;;;;;5.38;2.80;;;;;;;;;;5042805;28;20025;-89
2023/12/16 08:47:29;;;;;;;4.70;2.47;;;;;;;;;;5044429;28;20043;-88
2023/12/16 08:49:55;;;;;;;3.13;2.30;;;;;;;;;;5034652;28;20026;-87
2023/12/16 08:52:20;;;;;;;3.40;2.22;;;;;;;;;;5035241;28;20021;-87
2023/12/16 08:54:45;;;;;;;5.18;2.75;;;;;;;;;;5036321;28;20087;-89
2023/12/16 08:57:11;;;;;;;3.03;2.25;;;;;;;;;;5035304;28;20033;-87
2023/12/16 08:59:36;;;;;;;3.58;2.30;;;;;;;;;;5033407;28;20087;-87
2023/12/16 09:02:05;;;;;;;2.92;2.17;;;;;;;;;;5033431;28;20387;-89
2023/12/16 09:04:30;;;;;;;2.33;1.98;;;;;;;;;;5033782;28;20033;-89
2023/12/16 09:06:55;;;;;;;4.90;2.90;;;;;;;;;;5035203;28;20022;-90
2023/12/16 09:09:21;;;;;;;3.45;2.53;;;;;;;;;;5032749;28;20047;-89
2023/12/16 09:11:46;;;;;;;8.20;5.32;;;;;;;;;;5035400;28;20468;-90
2023/12/16 09:14:11;;;;;;;12.25;7.55;;;;;;;;;;5038113;28;20083;-88
2023/12/16 09:16:37;;;;;;;8.07;4.32;;;;;;;;;;5033420;28;20475;-89
2023/12/16 09:19:03;;;;;;;10.23;5.72;;;;;;;;;;5032552;28;20121;-89
2023/12/16 09:21:29;;;;;;;6.93;3.45;;;;;;;;;;5033881;28;20391;-88
2023/12/16 09:23:55;;;;;;;5.53;3.40;;;;;;;;;;5034463;28;20029;-88
2023/12/16 09:26:23;;;;;;;4.53;2.90;;;;;;;;;;5032549;28;20065;-88
2023/12/16 09:28:49;;;;;;;4.78;2.90;;;;;;;;;;5033984;28;20025;-89
2023/12/16 09:31:16;;;;;;;4.60;2.22;;;;;;;;;;5033398;28;20025;-87
2023/12/16 09:33:41;;;;;;;4.03;2.28;;;;;;;;;;5035320;28;20036;-87
2023/12/16 09:36:12;;;;;;;4.45;3.05;;;;;;;;;;5035186;28;20092;-87
2023/12/16 09:38:37;;;;;;;6.68;4.40;;;;;;;;;;5035772;28;20021;-88
2023/12/16 09:41:03;;;;;;;7.32;3.80;;;;;;;;;;5032310;28;20080;-89
2023/12/16 09:43:33;;;;;;;4.15;2.78;;;;;;;;;;5030582;28;20122;-88
2023/12/16 09:45:58;;;;;;;3.35;2.50;;;;;;;;;;5026579;28;20108;-88
2023/12/16 09:48:24;;;;;;;2.88;2.03;;;;;;;;;;5034097;28;20447;-87
2023/12/16 09:50:50;;;;;;;2.90;2.30;;;;;;;;;;5043786;28;20535;-88
2023/12/16 09:53:15;;;;;;;3.92;2.17;;;;;;;;;;5054904;28;20017;-89
2023/12/16 09:55:42;;;;;;;2.78;2.33;;;;;;;;;;5046044;28;20167;-89
2023/12/16 09:58:12;;;;;;;2.95;2.10;;;;;;;;;;5034972;28;20024;-89
2023/12/16 10:00:43;;;;;;;4.32;2.20;;;;;;;;;;5036818;28;20031;-88
2023/12/16 10:03:09;;;;;;;3.13;2.33;;;;;;;;;;5034666;28;20033;-87
2023/12/16 10:05:35;;;;;;;3.00;2.20;;;;;;;;;;5032901;28;20071;-87
2023/12/16 10:08:05;;;;;;;3.35;2.50;;;;;;;;;;5034986;28;20036;-88
2023/12/16 10:10:30;;;;;;;3.95;2.25;;;;;;;;;;5032334;28;20028;-89
2023/12/16 10:13:01;;;;;;;2.30;2.10;;;;;;;;;;5033956;28;20013;-87
2023/12/16 10:15:32;;;;;;;6.55;2.20;;;;;;;;;;5032266;28;20025;-88
2023/12/16 10:18:02;;;;;;;4.22;2.40;;;;;;;;;;5036163;28;20030;-88
2023/12/16 10:20:30;;;;;;;2.15;1.90;;;;;;;;;;5033293;28;20021;-88
2023/12/16 10:23:00;;;;;;;4.45;2.08;;;;;;;;;;5046760;28;20063;-88
2023/12/16 10:25:25;;;;;;;4.90;2.47;;;;;;;;;;5036047;28;20075;-88
2023/12/16 10:27:59;;;;;;;4.18;2.35;;;;;;;;;;5039577;28;20036;-88
2023/12/16 10:30:25;;;;;;;5.18;2.92;;;;;;;;;;5036206;28;20021;-89
2023/12/16 10:32:50;;;;;;;3.85;2.75;;;;;;;;;;5029610;28;20028;-88
2023/12/16 10:35:16;;;;;;;4.07;2.60;;;;;;;;;;5027920;28;20041;-88
2023/12/16 10:37:51;;;;;;;3.03;2.28;;;;;;;;;;5013609;28;20034;-88
2023/12/16 10:40:18;;;;;;;2.47;2.28;;;;;;;;;;5034292;28;20057;-87
2023/12/16 10:42:44;;;;;;;7.75;2.58;;;;;;;;;;5042105;28;20108;-87
2023/12/16 10:45:10;;;;;;;4.53;2.65;;;;;;;;;;5053107;28;20034;-87
2023/12/16 10:47:37;;;;;;;7.05;4.13;;;;;;;;;;5037905;28;20026;-87
2023/12/16 10:50:03;;;;;;;5.30;3.67;;;;;;;;;;5036839;28;20402;-88
2023/12/16 10:52:34;;;;;;;6.53;3.45;;;;;;;;;;5039930;28;20039;-87
2023/12/16 10:55:02;;;;;;;7.07;3.30;;;;;;;;;;5039417;28;20021;-88
2023/12/16 10:57:49;;;;;;;4.93;3.50;;;;;;;;;;5040562;28;20507;-90
2023/12/16 11:00:28;;;;;;;4.85;3.40;;;;;;;;;;5037714;28;20040;-88
2023/12/16 11:03:15;;;;;;;8.10;3.03;;;;;;;;;;5041053;28;20022;-89
2023/12/16 11:05:47;;;;;;;4.57;2.80;;;;;;;;;;5039174;28;20037;-88
2023/12/16 11:08:12;;;;;;;;;;;;;;;;;;5039571;28;20365;-87
2023/12/16 11:10:38;;;;;;;5.50;3.08;;;;;;;;;;5036049;28;20374;-86
2023/12/16 11:13:04;;;;;;;3.40;2.35;;;;;;;;;;5040720;28;20504;-88
2023/12/16 11:15:32;;;;;;;6.18;3.20;;;;;;;;;;5040721;28;20125;-87
2023/12/16 11:18:21;;;;;;;5.70;3.58;;;;;;;;;;5040033;28;20035;-88
2023/12/16 11:20:52;;;;;;;4.60;2.92;;;;;;;;;;5039051;28;20033;-87
2023/12/16 11:23:19;;;;;;;3.67;2.28;;;;;;;;;;5038847;28;20017;-87
2023/12/16 11:25:47;;;;;;;8.75;3.33;;;;;;;;;;5036492;28;20478;-87
2023/12/16 11:28:17;;;;;;;2.92;2.28;;;;;;;;;;5049380;28;20025;-88
2023/12/16 11:30:42;;;;;;;4.45;2.78;;;;;;;;;;5047055;28;20116;-88
2023/12/16 11:33:08;;;;;;;8.32;3.63;;;;;;;;;;5045598;28;20102;-90
2023/12/16 11:35:47;;;;;;;4.53;2.90;;;;;;;;;;5052018;28;20582;-87
2023/12/16 11:38:34;;;;;;;2.28;2.05;;;;;;;;;;5033763;28;20025;-88
2023/12/16 11:40:59;;;;;;;9.55;3.55;;;;;;;;;;5046029;28;20471;-87
2023/12/16 11:43:45;;;;;;;4.00;2.65;;;;;;;;;;5036605;28;20033;-88
2023/12/16 11:46:31;;;;;;;6.10;3.08;;;;;;;;;;5030484;28;20064;-88
2023/12/16 11:48:57;;;;;;;7.20;2.90;;;;;;;;;;5046487;28;20033;-86
2023/12/16 11:51:22;;;;;;;4.07;2.70;;;;;;;;;;5038373;28;20021;-88
2023/12/16 11:53:50;;;;;;;4.55;2.67;;;;;;;;;;5039711;28;20033;-88
2023/12/16 11:56:16;;;;;;;6.25;3.13;;;;;;;;;;5037601;28;20084;-88
2023/12/16 11:58:41;;;;;;;6.53;3.38;;;;;;;;;;5039024;28;20099;-88
2023/12/16 12:01:07;;;;;;;5.53;3.28;;;;;;;;;;5038668;28;20048;-87
2023/12/16 12:03:32;;;;;;;4.15;2.75;;;;;;;;;;5038562;28;20120;-87
2023/12/16 12:05:58;;;;;;;6.45;3.33;;;;;;;;;;5041740;28;20037;-88
2023/12/16 12:08:23;;;;;;;4.88;3.22;;;;;;;;;;5047654;28;20052;-87
2023/12/16 12:10:48;;;;;;;4.18;2.85;;;;;;;;;;5042927;28;20022;-89
2023/12/16 12:13:14;;;;;;;9.65;3.35;;;;;;;;;;5043097;28;20032;-88
2023/12/16 12:15:39;;;;;;;4.63;2.60;;;;;;;;;;5041502;28;20068;-88
2023/12/16 12:18:05;;;;;;;3.90;2.50;;;;;;;;;;5042040;28;20033;-89
2023/12/16 12:20:30;;;;;;;4.45;2.92;;;;;;;;;;5049179;28;20052;-88
2023/12/16 12:22:56;;;;;;;6.72;3.13;;;;;;;;;;5055074;28;20077;-88
2023/12/16 12:25:21;;;;;;;5.43;3.03;;;;;;;;;;5055956;28;20093;-87
2023/12/16 12:27:48;;;;;;;7.32;3.20;;;;;;;;;;5042118;28;20029;-87
2023/12/16 12:30:20;;;;;;;5.28;3.08;;;;;;;;;;5037539;28;20032;-88
2023/12/16 12:32:46;;;;;;;6.70;3.88;;;;;;;;;;5037771;28;20459;-88
2023/12/16 12:35:11;;;;;;;5.10;2.78;;;;;;;;;;5041019;28;20032;-88
2023/12/16 12:37:38;;;;;;;7.15;3.72;;;;;;;;;;5049912;28;20029;-87
2023/12/16 12:40:14;;;;;;;4.93;3.35;;;;;;;;;;5037337;28;20076;-89
2023/12/16 12:42:57;;;;;;;4.40;3.05;;;;;;;;;;5036480;28;20079;-88
2023/12/16 12:45:23;;;;;;;4.35;3.00;;;;;;;;;;5043007;28;20104;-87
2023/12/16 12:47:49;;;;;;;8.90;3.08;;;;;;;;;;5040032;28;20061;-87
2023/12/16 12:50:27;;;;;;;10.50;3.25;;;;;;;;;;5037813;28;20029;-87
2023/12/16 12:52:53;;;;;;;5.70;2.42;;;;;;;;;;5037176;28;20018;-88
2023/12/16 12:55:18;;;;;;;7.95;2.90;;;;;;;;;;5037465;28;20045;-88
2023/12/16 12:57:45;;;;;;;4.80;3.08;;;;;;;;;;5037194;28;20117;-88
2023/12/16 13:00:11;;;;;;;6.30;3.35;;;;;;;;;;5037626;28;20036;-86
2023/12/16 13:02:36;;;;;;;5.78;3.45;;;;;;;;;;5038257;28;20033;-87
2023/12/16 13:05:02;;;;;;;7.13;2.83;;;;;;;;;;5036738;28;20022;-88
2023/12/16 13:07:27;;;;;;;8.38;3.75;;;;;;;;;;5034981;28;20481;-87
2023/12/16 13:09:53;;;;;;;4.60;2.25;;;;;;;;;;5035657;28;20168;-88
2023/12/16 13:12:18;;;;;;;3.50;2.72;;;;;;;;;;5036816;28;20028;-87
2023/12/16 13:14:44;;;;;;;3.95;2.50;;;;;;;;;;5034137;28;20029;-88
2023/12/16 13:17:09;;;;;;;5.85;3.47;;;;;;;;;;5040487;28;20029;-88
2023/12/16 13:19:35;;;;;;;7.95;2.53;;;;;;;;;;5040108;28;20112;-87
2023/12/16 13:22:00;;;;;;;3.38;1.85;;;;;;;;;;5035750;28;20029;-86
2023/12/16 13:24:27;;;;;;;8.57;2.75;;;;;;;;;;5033794;28;20081;-88
2023/12/16 13:26:53;;;;;;;9.25;1.88;;;;;;;;;;5034169;28;20025;-88
2023/12/16 13:29:21;;;;;;;4.78;1.70;;;;;;;;;;5035197;28;20021;-88
2023/12/16 13:31:46;;;;;;;5.57;2.45;;;;;;;;;;5038838;28;20021;-86
2023/12/16 13:34:12;;;;;;;2.47;1.60;;;;;;;;;;5038827;28;20068;-88
2023/12/16 13:36:38;;;;;;;9.30;3.13;;;;;;;;;;5040176;28;20025;-86
2023/12/16 13:39:03;;;;;;;2.83;1.92;;;;;;;;;;5039562;28;20055;-87
2023/12/16 13:41:29;;;;;;;7.50;1.85;;;;;;;;;;5035945;28;20108;-90
2023/12/16 13:43:55;;;;;;;5.63;2.08;;;;;;;;;;5036897;28;20025;-90
2023/12/16 13:46:20;;;;;;;6.82;2.70;;;;;;;;;;5036376;28;20033;-88
2023/12/16 13:48:45;;;;;;;4.88;2.17;;;;;;;;;;5036084;28;20028;-88
2023/12/16 13:51:10;;;;;;;4.88;2.00;;;;;;;;;;5038080;28;20045;-88
2023/12/16 13:53:36;;;;;;;10.45;2.35;;;;;;;;;;5039993;28;20018;-89
2023/12/16 13:56:02;;;;;;;5.68;2.10;;;;;;;;;;5038953;28;20025;-89
2023/12/16 13:58:27;;;;;;;4.05;2.28;;;;;;;;;;5039028;28;20032;-89
2023/12/16 14:00:54;;;;;;;5.85;2.60;;;;;;;;;;5037592;28;20029;-88
2023/12/16 14:03:20;;;;;;;6.38;2.50;;;;;;;;;;5038967;28;20040;-90
2023/12/16 14:05:45;;;;;;;4.72;2.25;;;;;;;;;;5039086;28;20541;-90
2023/12/16 14:08:11;;;;;;;8.68;3.75;;;;;;;;;;5038620;28;20040;-89
2023/12/16 14:10:37;;;;;;;17.75;7.47;;;;;;;;;;5037035;28;20021;-91
2023/12/16 14:13:03;;;;;;;13.43;4.03;;;;;;;;;;5039678;28;20045;-88
2023/12/16 14:15:28;;;;;;;8.77;3.95;;;;;;;;;;5052497;28;20284;-90
2023/12/16 14:17:54;;;;;;;4.90;2.50;;;;;;;;;;5046086;28;20049;-89
2023/12/16 14:20:19;;;;;;;2.20;1.95;;;;;;;;;;5042672;28;20040;-88
2023/12/16 14:22:44;;;;;;;4.93;1.95;;;;;;;;;;5044131;28;20037;-88
2023/12/16 14:25:11;;;;;;;9.20;2.47;;;;;;;;;;5044234;28;20103;-90
2023/12/16 14:27:37;;;;;;;4.40;1.70;;;;;;;;;;5050918;28;20090;-88
2023/12/16 14:30:05;;;;;;;23.02;2.67;;;;;;;;;;5042785;28;20032;-88
2023/12/16 14:32:30;;;;;;;1.88;1.38;;;;;;;;;;5043591;28;20025;-88
2023/12/16 14:34:55;;;;;;;1.63;1.40;;;;;;;;;;5042116;28;20064;-85
2023/12/16 14:37:21;;;;;;;2.67;1.45;;;;;;;;;;5042833;28;20030;-88